sensor_id;sensor_type;location;lat;lon;timestamp;pressure;altitude;pressure_sealevel;temperature
63689;BMP280;54895;40.928;14.480;2023-04-03T00:01:16;100239.09;;;15.34
63689;BMP280;54895;40.928;14.480;2023-04-03T00:03:43;100236.97;;;15.33
63689;BMP280;54895;40.928;14.480;2023-04-03T00:06:10;100244.94;;;15.23
63689;BMP280;54895;40.928;14.480;2023-04-03T00:08:38;100239.91;;;15.27
63689;BMP280;54895;40.928;14.480;2023-04-03T00:11:06;100242.00;;;15.29
63689;BMP280;54895;40.928;14.480;2023-04-03T00:13:33;100222.06;;;15.22
63689;BMP280;54895;40.928;14.480;2023-04-03T00:16:00;100228.38;;;15.34
63689;BMP280;54895;40.928;14.480;2023-04-03T00:18:27;100214.19;;;15.24
63689;BMP280;54895;40.928;14.480;2023-04-03T00:20:53;100196.38;;;15.19
63689;BMP280;54895;40.928;14.480;2023-04-03T00:23:20;100181.28;;;15.14
63689;BMP280;54895;40.928;14.480;2023-04-03T00:25:46;100183.47;;;15.08
63689;BMP280;54895;40.928;14.480;2023-04-03T00:28:13;100167.03;;;14.95
63689;BMP280;54895;40.928;14.480;2023-04-03T00:30:39;100188.84;;;15.08
63689;BMP280;54895;40.928;14.480;2023-04-03T00:33:06;100180.78;;;15.08
63689;BMP280;54895;40.928;14.480;2023-04-03T00:35:34;100152.84;;;15.02
63689;BMP280;54895;40.928;14.480;2023-04-03T00:38:01;100152.47;;;14.88
63689;BMP280;54895;40.928;14.480;2023-04-03T00:40:27;100171.69;;;14.94
63689;BMP280;54895;40.928;14.480;2023-04-03T00:42:58;100174.81;;;15.00
63689;BMP280;54895;40.928;14.480;2023-04-03T00:45:33;100156.13;;;15.10
63689;BMP280;54895;40.928;14.480;2023-04-03T00:48:01;100144.47;;;14.98
63689;BMP280;54895;40.928;14.480;2023-04-03T00:50:32;100149.84;;;14.98
63689;BMP280;54895;40.928;14.480;2023-04-03T00:53:00;100149.84;;;14.98
63689;BMP280;54895;40.928;14.480;2023-04-03T00:55:27;100145.19;;;14.98
63689;BMP280;54895;40.928;14.480;2023-04-03T00:57:54;100129.63;;;14.87
63689;BMP280;54895;40.928;14.480;2023-04-03T01:00:22;100140.25;;;14.95
63689;BMP280;54895;40.928;14.480;2023-04-03T01:02:51;100145.34;;;15.00
63689;BMP280;54895;40.928;14.480;2023-04-03T01:05:19;100106.00;;;14.93
63689;BMP280;54895;40.928;14.480;2023-04-03T01:07:47;100131.19;;;14.90
63689;BMP280;54895;40.928;14.480;2023-04-03T01:10:16;100136.28;;;14.96
63689;BMP280;54895;40.928;14.480;2023-04-03T01:12:45;100119.53;;;14.78
63689;BMP280;54895;40.928;14.480;2023-04-03T01:15:19;100134.19;;;14.94
63689;BMP280;54895;40.928;14.480;2023-04-03T01:17:48;100133.06;;;14.97
63689;BMP280;54895;40.928;14.480;2023-04-03T01:23:10;100135.25;;;15.08
63689;BMP280;54895;40.928;14.480;2023-04-03T01:25:43;100134.19;;;14.94
63689;BMP280;54895;40.928;14.480;2023-04-03T01:28:13;100127.06;;;14.89
63689;BMP280;54895;40.928;14.480;2023-04-03T01:33:46;100135.56;;;14.95
63689;BMP280;54895;40.928;14.480;2023-04-03T01:36:22;100110.41;;;14.81
63689;BMP280;54895;40.928;14.480;2023-04-03T01:38:51;100123.81;;;15.08
63689;BMP280;54895;40.928;14.480;2023-04-03T01:41:18;100130.88;;;15.03
63689;BMP280;54895;40.928;14.480;2023-04-03T01:43:47;100093.22;;;14.84
63689;BMP280;54895;40.928;14.480;2023-04-03T01:46:15;100099.50;;;14.96
63689;BMP280;54895;40.928;14.480;2023-04-03T01:48:42;100084.88;;;14.80
63689;BMP280;54895;40.928;14.480;2023-04-03T01:51:08;100106.81;;;14.96
63689;BMP280;54895;40.928;14.480;2023-04-03T01:53:35;100084.38;;;14.91
63689;BMP280;54895;40.928;14.480;2023-04-03T01:56:02;100079.28;;;14.86
63689;BMP280;54895;40.928;14.480;2023-04-03T01:58:30;100078.75;;;14.87
63689;BMP280;54895;40.928;14.480;2023-04-03T02:00:57;100087.28;;;15.03
63689;BMP280;54895;40.928;14.480;2023-04-03T02:03:23;100090.34;;;15.16
63689;BMP280;54895;40.928;14.480;2023-04-03T02:05:50;100090.84;;;14.88
63689;BMP280;54895;40.928;14.480;2023-04-03T02:08:16;100073.84;;;14.93
63689;BMP280;54895;40.928;14.480;2023-04-03T02:10:49;100070.38;;;14.83
63689;BMP280;54895;40.928;14.480;2023-04-03T02:13:17;100069.91;;;14.77
63689;BMP280;54895;40.928;14.480;2023-04-03T02:15:45;100043.09;;;14.68
63689;BMP280;54895;40.928;14.480;2023-04-03T02:18:12;100036.88;;;14.65
63689;BMP280;54895;40.928;14.480;2023-04-03T02:20:39;100040.47;;;14.77
63689;BMP280;54895;40.928;14.480;2023-04-03T02:23:05;100043.59;;;14.83
63689;BMP280;54895;40.928;14.480;2023-04-03T02:25:32;100070.88;;;15.16
63689;BMP280;54895;40.928;14.480;2023-04-03T02:27:59;100080.09;;;15.05
63689;BMP280;54895;40.928;14.480;2023-04-03T02:30:26;100062.34;;;14.83
63689;BMP280;54895;40.928;14.480;2023-04-03T02:32:53;100060.50;;;15.03
63689;BMP280;54895;40.928;14.480;2023-04-03T02:35:20;100051.59;;;15.00
63689;BMP280;54895;40.928;14.480;2023-04-03T02:37:47;100043.34;;;14.89
63689;BMP280;54895;40.928;14.480;2023-04-03T02:40:14;100028.09;;;14.82
63689;BMP280;54895;40.928;14.480;2023-04-03T02:42:41;100033.22;;;14.87
63689;BMP280;54895;40.928;14.480;2023-04-03T02:45:07;100045.13;;;15.03
63689;BMP280;54895;40.928;14.480;2023-04-03T02:47:34;100036.03;;;15.16
63689;BMP280;54895;40.928;14.480;2023-04-03T02:50:01;100045.72;;;15.11
63689;BMP280;54895;40.928;14.480;2023-04-03T02:52:27;100043.22;;;15.13
63689;BMP280;54895;40.928;14.480;2023-04-03T02:54:57;100043.50;;;15.17
63689;BMP280;54895;40.928;14.480;2023-04-03T02:57:24;100025.50;;;15.01
63689;BMP280;54895;40.928;14.480;2023-04-03T02:59:50;100017.72;;;14.95
63689;BMP280;54895;40.928;14.480;2023-04-03T03:02:16;99994.06;;;15.01
63689;BMP280;54895;40.928;14.480;2023-04-03T03:04:43;100002.78;;;14.92
63689;BMP280;54895;40.928;14.480;2023-04-03T03:07:09;100015.72;;;14.86
63689;BMP280;54895;40.928;14.480;2023-04-03T03:09:36;100011.13;;;14.96
63689;BMP280;54895;40.928;14.480;2023-04-03T03:12:04;99992.72;;;14.83
63689;BMP280;54895;40.928;14.480;2023-04-03T03:14:30;99986.50;;;14.81
63689;BMP280;54895;40.928;14.480;2023-04-03T03:16:56;99970.53;;;14.73
63689;BMP280;54895;40.928;14.480;2023-04-03T03:19:23;99970.94;;;14.96
63689;BMP280;54895;40.928;14.480;2023-04-03T03:21:50;99982.63;;;14.91
63689;BMP280;54895;40.928;14.480;2023-04-03T03:24:17;99984.06;;;15.02
63689;BMP280;54895;40.928;14.480;2023-04-03T03:26:43;99981.59;;;15.13
63689;BMP280;54895;40.928;14.480;2023-04-03T03:29:10;99943.84;;;14.92
63689;BMP280;54895;40.928;14.480;2023-04-03T03:31:37;99985.47;;;14.93
63689;BMP280;54895;40.928;14.480;2023-04-03T03:34:03;99975.50;;;15.03
63689;BMP280;54895;40.928;14.480;2023-04-03T03:36:29;99981.59;;;15.13
63689;BMP280;54895;40.928;14.480;2023-04-03T03:38:57;99969.00;;;15.06
63689;BMP280;54895;40.928;14.480;2023-04-03T03:41:24;99965.59;;;14.96
63689;BMP280;54895;40.928;14.480;2023-04-03T03:43:50;99945.13;;;15.01
63689;BMP280;54895;40.928;14.480;2023-04-03T03:46:17;99967.19;;;15.18
63689;BMP280;54895;40.928;14.480;2023-04-03T03:48:43;99924.41;;;15.01
63689;BMP280;54895;40.928;14.480;2023-04-03T03:51:10;99972.09;;;15.12
63689;BMP280;54895;40.928;14.480;2023-04-03T03:53:38;99962.53;;;15.09
63689;BMP280;54895;40.928;14.480;2023-04-03T03:56:08;99959.25;;;15.01
63689;BMP280;54895;40.928;14.480;2023-04-03T03:58:37;99958.59;;;15.10
63689;BMP280;54895;40.928;14.480;2023-04-03T04:01:05;99964.53;;;15.18
63689;BMP280;54895;40.928;14.480;2023-04-03T04:03:34;99949.81;;;15.00
63689;BMP280;54895;40.928;14.480;2023-04-03T04:06:01;99957.47;;;15.13
63689;BMP280;54895;40.928;14.480;2023-04-03T04:08:28;99943.53;;;15.24
63689;BMP280;54895;40.928;14.480;2023-04-03T04:10:54;99942.97;;;15.16
63689;BMP280;54895;40.928;14.480;2023-04-03T04:13:21;99928.41;;;15.19
63689;BMP280;54895;40.928;14.480;2023-04-03T04:15:47;99946.22;;;15.24
63689;BMP280;54895;40.928;14.480;2023-04-03T04:18:17;99955.66;;;15.25
63689;BMP280;54895;40.928;14.480;2023-04-03T04:20:48;99932.09;;;15.14
63689;BMP280;54895;40.928;14.480;2023-04-03T04:23:22;99931.28;;;15.21
63689;BMP280;54895;40.928;14.480;2023-04-03T04:25:50;99969.09;;;15.44
63689;BMP280;54895;40.928;14.480;2023-04-03T04:28:17;99953.16;;;15.27
63689;BMP280;54895;40.928;14.480;2023-04-03T04:30:45;99945.78;;;15.28
63689;BMP280;54895;40.928;14.480;2023-04-03T04:33:12;99938.38;;;15.00
63689;BMP280;54895;40.928;14.480;2023-04-03T04:35:43;99930.81;;;15.15
63689;BMP280;54895;40.928;14.480;2023-04-03T04:38:10;99934.59;;;15.12
63689;BMP280;54895;40.928;14.480;2023-04-03T04:40:37;99940.03;;;15.31
63689;BMP280;54895;40.928;14.480;2023-04-03T04:43:04;99941.97;;;15.21
63689;BMP280;54895;40.928;14.480;2023-04-03T04:45:30;99909.19;;;14.94
63689;BMP280;54895;40.928;14.480;2023-04-03T04:47:57;99937.38;;;14.95
63689;BMP280;54895;40.928;14.480;2023-04-03T04:50:24;99917.66;;;15.00
63689;BMP280;54895;40.928;14.480;2023-04-03T04:52:51;99943.63;;;15.07
63689;BMP280;54895;40.928;14.480;2023-04-03T04:55:17;99940.59;;;15.30
63689;BMP280;54895;40.928;14.480;2023-04-03T04:57:43;99935.19;;;15.11
63689;BMP280;54895;40.928;14.480;2023-04-03T05:00:10;99960.06;;;15.30
63689;BMP280;54895;40.928;14.480;2023-04-03T05:02:37;99929.56;;;15.16
63689;BMP280;54895;40.928;14.480;2023-04-03T05:05:03;99943.38;;;15.22
63689;BMP280;54895;40.928;14.480;2023-04-03T05:07:30;99943.25;;;15.20
63689;BMP280;54895;40.928;14.480;2023-04-03T05:09:58;99954.84;;;15.32
63689;BMP280;54895;40.928;14.480;2023-04-03T05:12:24;99939.22;;;15.02
63689;BMP280;54895;40.928;14.480;2023-04-03T05:14:56;99946.66;;;15.30
63689;BMP280;54895;40.928;14.480;2023-04-03T05:17:23;99942.81;;;15.14
63689;BMP280;54895;40.928;14.480;2023-04-03T05:19:52;99931.63;;;15.08
63689;BMP280;54895;40.928;14.480;2023-04-03T05:22:21;99956.38;;;15.35
63689;BMP280;54895;40.928;14.480;2023-04-03T05:24:47;99952.28;;;15.25
63689;BMP280;54895;40.928;14.480;2023-04-03T05:27:15;99953.69;;;15.26
63689;BMP280;54895;40.928;14.480;2023-04-03T05:29:44;99940.41;;;15.18
63689;BMP280;54895;40.928;14.480;2023-04-03T05:32:19;99984.06;;;15.38
63689;BMP280;54895;40.928;14.480;2023-04-03T05:34:50;99969.69;;;15.52
63689;BMP280;54895;40.928;14.480;2023-04-03T05:37:19;99927.75;;;15.28
63689;BMP280;54895;40.928;14.480;2023-04-03T05:39:46;99972.75;;;15.39
63689;BMP280;54895;40.928;14.480;2023-04-03T05:42:13;99975.19;;;15.45
63689;BMP280;54895;40.928;14.480;2023-04-03T05:44:40;99959.25;;;15.37
63689;BMP280;54895;40.928;14.480;2023-04-03T05:47:07;99982.38;;;15.42
63689;BMP280;54895;40.928;14.480;2023-04-03T05:49:33;99972.53;;;15.54
63689;BMP280;54895;40.928;14.480;2023-04-03T05:52:00;99980.69;;;15.56
63689;BMP280;54895;40.928;14.480;2023-04-03T05:54:30;99969.84;;;15.54
63689;BMP280;54895;40.928;14.480;2023-04-03T05:57:06;99927.34;;;15.41
63689;BMP280;54895;40.928;14.480;2023-04-03T05:59:32;100002.03;;;15.64
63689;BMP280;54895;40.928;14.480;2023-04-03T06:02:00;99980.75;;;15.75
63689;BMP280;54895;40.928;14.480;2023-04-03T06:04:27;99986.25;;;15.77
63689;BMP280;54895;40.928;14.480;2023-04-03T06:06:56;99983.13;;;15.71
63689;BMP280;54895;40.928;14.480;2023-04-03T06:09:26;99992.56;;;15.53
63689;BMP280;54895;40.928;14.480;2023-04-03T06:11:55;99978.44;;;15.43
63689;BMP280;54895;40.928;14.480;2023-04-03T06:14:24;99984.41;;;15.70
63689;BMP280;54895;40.928;14.480;2023-04-03T06:16:52;99993.97;;;15.54
63689;BMP280;54895;40.928;14.480;2023-04-03T06:19:20;99993.44;;;15.65
63689;BMP280;54895;40.928;14.480;2023-04-03T06:21:51;99938.78;;;15.61
63689;BMP280;54895;40.928;14.480;2023-04-03T06:24:18;99978.50;;;15.81
63689;BMP280;54895;40.928;14.480;2023-04-03T06:26:45;99957.28;;;15.66
63689;BMP280;54895;40.928;14.480;2023-04-03T06:29:12;99947.16;;;15.74
63689;BMP280;54895;40.928;14.480;2023-04-03T06:31:38;99941.22;;;15.85
63689;BMP280;54895;40.928;14.480;2023-04-03T06:34:05;99967.47;;;15.87
63689;BMP280;54895;40.928;14.480;2023-04-03T06:36:33;99946.31;;;15.81
63689;BMP280;54895;40.928;14.480;2023-04-03T06:39:00;99962.94;;;15.89
63689;BMP280;54895;40.928;14.480;2023-04-03T06:41:30;99944.88;;;15.99
63689;BMP280;54895;40.928;14.480;2023-04-03T06:43:56;99940.63;;;15.96
63689;BMP280;54895;40.928;14.480;2023-04-03T06:46:26;99954.63;;;16.04
63689;BMP280;54895;40.928;14.480;2023-04-03T06:48:53;99948.25;;;16.09
63689;BMP280;54895;40.928;14.480;2023-04-03T06:51:22;99919.44;;;16.10
63689;BMP280;54895;40.928;14.480;2023-04-03T06:53:51;99947.69;;;16.20
63689;BMP280;54895;40.928;14.480;2023-04-03T06:56:18;99937.41;;;16.07
63689;BMP280;54895;40.928;14.480;2023-04-03T06:58:44;99928.91;;;16.20
63689;BMP280;54895;40.928;14.480;2023-04-03T07:01:14;99949.09;;;16.21
63689;BMP280;54895;40.928;14.480;2023-04-03T07:03:40;99956.13;;;16.26
63689;BMP280;54895;40.928;14.480;2023-04-03T07:06:11;99937.63;;;16.30
63689;BMP280;54895;40.928;14.480;2023-04-03T07:08:37;99931.72;;;16.32
63689;BMP280;54895;40.928;14.480;2023-04-03T07:11:04;99951.03;;;16.40
63689;BMP280;54895;40.928;14.480;2023-04-03T07:13:31;99969.22;;;16.50
63689;BMP280;54895;40.928;14.480;2023-04-03T07:15:58;99966.09;;;16.63
63689;BMP280;54895;40.928;14.480;2023-04-03T07:18:25;99951.13;;;16.91
63689;BMP280;54895;40.928;14.480;2023-04-03T07:20:52;99956.16;;;16.75
63689;BMP280;54895;40.928;14.480;2023-04-03T07:23:18;99956.25;;;16.87
63689;BMP280;54895;40.928;14.480;2023-04-03T07:25:47;99920.38;;;16.73
63689;BMP280;54895;40.928;14.480;2023-04-03T07:28:15;99951.09;;;16.70
63689;BMP280;54895;40.928;14.480;2023-04-03T07:30:59;99954.81;;;16.86
63689;BMP280;54895;40.928;14.480;2023-04-03T07:33:27;99956.69;;;16.83
63689;BMP280;54895;40.928;14.480;2023-04-03T07:35:53;99953.78;;;16.70
63689;BMP280;54895;40.928;14.480;2023-04-03T07:38:20;99945.63;;;16.58
63689;BMP280;54895;40.928;14.480;2023-04-03T07:40:48;99941.09;;;16.61
63689;BMP280;54895;40.928;14.480;2023-04-03T07:43:15;99937.31;;;16.85
63689;BMP280;54895;40.928;14.480;2023-04-03T07:45:42;99962.94;;;16.76
63689;BMP280;54895;40.928;14.480;2023-04-03T07:48:10;99953.41;;;16.85
63689;BMP280;54895;40.928;14.480;2023-04-03T07:50:40;99929.13;;;16.83
63689;BMP280;54895;40.928;14.480;2023-04-03T07:53:06;99956.75;;;16.95
63689;BMP280;54895;40.928;14.480;2023-04-03T07:55:34;99926.56;;;16.85
63689;BMP280;54895;40.928;14.480;2023-04-03T07:58:00;99938.44;;;16.82
63689;BMP280;54895;40.928;14.480;2023-04-03T08:00:26;99933.06;;;16.82
63689;BMP280;54895;40.928;14.480;2023-04-03T08:02:53;99974.41;;;16.77
63689;BMP280;54895;40.928;14.480;2023-04-03T08:05:19;99940.34;;;16.70
63689;BMP280;54895;40.928;14.480;2023-04-03T08:07:47;99941.34;;;16.65
63689;BMP280;54895;40.928;14.480;2023-04-03T08:10:14;99921.25;;;16.66
63689;BMP280;54895;40.928;14.480;2023-04-03T08:12:45;100002.66;;;16.78
63689;BMP280;54895;40.928;14.480;2023-04-03T08:15:11;99969.53;;;16.85
63689;BMP280;54895;40.928;14.480;2023-04-03T08:17:38;100002.06;;;16.89
63689;BMP280;54895;40.928;14.480;2023-04-03T08:20:05;99961.13;;;16.69
63689;BMP280;54895;40.928;14.480;2023-04-03T08:22:33;99885.09;;;16.67
63689;BMP280;54895;40.928;14.480;2023-04-03T08:24:59;100001.91;;;16.47
63689;BMP280;54895;40.928;14.480;2023-04-03T08:27:27;99985.50;;;16.43
63689;BMP280;54895;40.928;14.480;2023-04-03T08:29:56;99975.53;;;16.74
63689;BMP280;54895;40.928;14.480;2023-04-03T08:32:23;100026.25;;;16.79
63689;BMP280;54895;40.928;14.480;2023-04-03T08:34:50;100019.81;;;16.54
63689;BMP280;54895;40.928;14.480;2023-04-03T08:37:16;99985.59;;;16.54
63689;BMP280;54895;40.928;14.480;2023-04-03T08:39:43;100001.28;;;16.67
63689;BMP280;54895;40.928;14.480;2023-04-03T08:45:16;99997.59;;;16.63
63689;BMP280;54895;40.928;14.480;2023-04-03T08:50:26;99994.59;;;16.78
63689;BMP280;54895;40.928;14.480;2023-04-03T08:52:58;100017.69;;;16.62
63689;BMP280;54895;40.928;14.480;2023-04-03T08:55:34;100014.69;;;16.67
63689;BMP280;54895;40.928;14.480;2023-04-03T08:58:05;100008.03;;;16.78
63689;BMP280;54895;40.928;14.480;2023-04-03T09:00:41;100002.84;;;16.61
63689;BMP280;54895;40.928;14.480;2023-04-03T09:03:15;99960.19;;;16.55
63689;BMP280;54895;40.928;14.480;2023-04-03T09:10:39;100015.81;;;16.64
63689;BMP280;54895;40.928;14.480;2023-04-03T09:13:30;99999.13;;;16.75
63689;BMP280;54895;40.928;14.480;2023-04-03T09:16:00;100016.78;;;16.88
63689;BMP280;54895;40.928;14.480;2023-04-03T09:18:36;100027.78;;;16.92
63689;BMP280;54895;40.928;14.480;2023-04-03T09:21:32;100017.34;;;16.86
63689;BMP280;54895;40.928;14.480;2023-04-03T09:24:01;99993.47;;;16.81
63689;BMP280;54895;40.928;14.480;2023-04-03T09:26:42;99988.41;;;17.06
63689;BMP280;54895;40.928;14.480;2023-04-03T09:29:16;99993.78;;;17.06
63689;BMP280;54895;40.928;14.480;2023-04-03T09:31:44;99970.94;;;16.86
63689;BMP280;54895;40.928;14.480;2023-04-03T09:34:26;99981.38;;;17.01
63689;BMP280;54895;40.928;14.480;2023-04-03T09:36:58;99991.91;;;17.18
63689;BMP280;54895;40.928;14.480;2023-04-03T09:39:28;99993.09;;;17.05
63689;BMP280;54895;40.928;14.480;2023-04-03T09:42:03;100001.00;;;17.34
63689;BMP280;54895;40.928;14.480;2023-04-03T09:44:35;100007.28;;;17.27
63689;BMP280;54895;40.928;14.480;2023-04-03T09:52:49;99968.13;;;16.84
63689;BMP280;54895;40.928;14.480;2023-04-03T09:55:21;99969.66;;;16.56
63689;BMP280;54895;40.928;14.480;2023-04-03T09:58:04;99962.03;;;16.53
63689;BMP280;54895;40.928;14.480;2023-04-03T10:00:34;99951.16;;;16.51
63689;BMP280;54895;40.928;14.480;2023-04-03T10:03:02;99979.78;;;16.77
63689;BMP280;54895;40.928;14.480;2023-04-03T10:05:40;99942.06;;;16.65
63689;BMP280;54895;40.928;14.480;2023-04-03T10:10:42;99973.25;;;16.70
63689;BMP280;54895;40.928;14.480;2023-04-03T10:13:20;99963.13;;;16.59
63689;BMP280;54895;40.928;14.480;2023-04-03T10:15:55;99977.41;;;16.62
63689;BMP280;54895;40.928;14.480;2023-04-03T10:24:19;99988.78;;;16.81
63689;BMP280;54895;40.928;14.480;2023-04-03T10:33:00;99984.66;;;16.90
63689;BMP280;54895;40.928;14.480;2023-04-03T10:35:50;99996.88;;;17.12
63689;BMP280;54895;40.928;14.480;2023-04-03T10:43:37;99989.22;;;17.39
63689;BMP280;54895;40.928;14.480;2023-04-03T10:51:51;100016.91;;;16.80
63689;BMP280;54895;40.928;14.480;2023-04-03T10:54:22;100000.81;;;16.80
63689;BMP280;54895;40.928;14.480;2023-04-03T11:02:27;99985.56;;;16.73
63689;BMP280;54895;40.928;14.480;2023-04-03T11:05:34;100003.91;;;16.86
63689;BMP280;54895;40.928;14.480;2023-04-03T11:08:05;100009.53;;;16.90
63689;BMP280;54895;40.928;14.480;2023-04-03T11:10:45;99988.59;;;16.49
63689;BMP280;54895;40.928;14.480;2023-04-03T11:16:21;99998.66;;;16.49
63689;BMP280;54895;40.928;14.480;2023-04-03T11:18:52;99991.59;;;16.34
63689;BMP280;54895;40.928;14.480;2023-04-03T11:21:28;99996.19;;;16.62
63689;BMP280;54895;40.928;14.480;2023-04-03T11:23:57;99985.94;;;16.89
63689;BMP280;54895;40.928;14.480;2023-04-03T11:26:29;99986.13;;;17.12
63689;BMP280;54895;40.928;14.480;2023-04-03T11:29:06;99970.59;;;17.01
63689;BMP280;54895;40.928;14.480;2023-04-03T11:34:41;99948.72;;;16.95
63689;BMP280;54895;40.928;14.480;2023-04-03T11:40:26;99988.97;;;17.35
63689;BMP280;54895;40.928;14.480;2023-04-03T11:45:31;99976.78;;;17.34
63689;BMP280;54895;40.928;14.480;2023-04-03T12:05:51;100006.56;;;17.68
63689;BMP280;54895;40.928;14.480;2023-04-03T12:08:28;99993.56;;;17.44
63689;BMP280;54895;40.928;14.480;2023-04-03T12:16:25;99997.47;;;17.01
63689;BMP280;54895;40.928;14.480;2023-04-03T12:24:02;99997.81;;;16.86
63689;BMP280;54895;40.928;14.480;2023-04-03T12:29:27;99994.19;;;17.12
63689;BMP280;54895;40.928;14.480;2023-04-03T12:35:16;99981.44;;;16.82
63689;BMP280;54895;40.928;14.480;2023-04-03T12:51:18;100018.53;;;17.35
63689;BMP280;54895;40.928;14.480;2023-04-03T12:53:45;99947.25;;;16.73
63689;BMP280;54895;40.928;14.480;2023-04-03T12:56:22;100006.81;;;16.60
63689;BMP280;54895;40.928;14.480;2023-04-03T12:58:54;99975.00;;;16.56
63689;BMP280;54895;40.928;14.480;2023-04-03T13:01:24;99992.31;;;16.74
63689;BMP280;54895;40.928;14.480;2023-04-03T13:03:56;100003.78;;;16.75
63689;BMP280;54895;40.928;14.480;2023-04-03T13:06:30;99993.94;;;16.68
63689;BMP280;54895;40.928;14.480;2023-04-03T13:09:24;99976.19;;;16.25
63689;BMP280;54895;40.928;14.480;2023-04-03T13:12:15;100004.16;;;16.41
63689;BMP280;54895;40.928;14.480;2023-04-03T13:14:52;100024.22;;;16.40
63689;BMP280;54895;40.928;14.480;2023-04-03T13:17:19;99962.63;;;16.42
63689;BMP280;54895;40.928;14.480;2023-04-03T13:19:46;100001.31;;;16.58
63689;BMP280;54895;40.928;14.480;2023-04-03T13:22:36;99981.22;;;16.59
63689;BMP280;54895;40.928;14.480;2023-04-03T13:25:11;99978.41;;;16.57
63689;BMP280;54895;40.928;14.480;2023-04-03T13:27:39;99968.25;;;16.46
63689;BMP280;54895;40.928;14.480;2023-04-03T13:30:38;100001.94;;;16.28
63689;BMP280;54895;40.928;14.480;2023-04-03T13:33:20;99971.69;;;16.18
63689;BMP280;54895;40.928;14.480;2023-04-03T13:35:55;99988.06;;;16.41
63689;BMP280;54895;40.928;14.480;2023-04-03T13:38:28;99992.72;;;16.31
63689;BMP280;54895;40.928;14.480;2023-04-03T13:40:59;99989.47;;;16.42
63689;BMP280;54895;40.928;14.480;2023-04-03T13:43:32;99965.88;;;16.31
63689;BMP280;54895;40.928;14.480;2023-04-03T13:46:21;99954.06;;;16.06
63689;BMP280;54895;40.928;14.480;2023-04-03T13:48:51;99975.63;;;16.36
63689;BMP280;54895;40.928;14.480;2023-04-03T13:51:26;99979.03;;;16.27
63689;BMP280;54895;40.928;14.480;2023-04-03T13:53:59;99971.69;;;16.18
63689;BMP280;54895;40.928;14.480;2023-04-03T13:56:38;99956.50;;;16.51
63689;BMP280;54895;40.928;14.480;2023-04-03T13:59:24;99989.78;;;16.27
63689;BMP280;54895;40.928;14.480;2023-04-03T14:04:47;99957.56;;;16.08
63689;BMP280;54895;40.928;14.480;2023-04-03T14:07:16;99931.63;;;16.01
63689;BMP280;54895;40.928;14.480;2023-04-03T14:09:44;99963.34;;;16.33
63689;BMP280;54895;40.928;14.480;2023-04-03T14:12:18;99963.91;;;16.32
63689;BMP280;54895;40.928;14.480;2023-04-03T14:14:46;99961.16;;;16.60
63689;BMP280;54895;40.928;14.480;2023-04-03T14:17:19;99960.00;;;16.63
63689;BMP280;54895;40.928;14.480;2023-04-03T14:19:47;99931.94;;;16.45
63689;BMP280;54895;40.928;14.480;2023-04-03T14:22:26;99946.50;;;16.42
63689;BMP280;54895;40.928;14.480;2023-04-03T14:24:52;99941.81;;;16.52
63689;BMP280;54895;40.928;14.480;2023-04-03T14:27:29;99941.94;;;16.54
63689;BMP280;54895;40.928;14.480;2023-04-03T14:29:58;99946.44;;;16.61
63689;BMP280;54895;40.928;14.480;2023-04-03T14:32:26;99912.41;;;16.44
63689;BMP280;54895;40.928;14.480;2023-04-03T14:34:52;99932.56;;;16.74
63689;BMP280;54895;40.928;14.480;2023-04-03T14:37:22;99930.44;;;16.72
63689;BMP280;54895;40.928;14.480;2023-04-03T14:39:49;99938.88;;;16.48
63689;BMP280;54895;40.928;14.480;2023-04-03T14:42:22;99945.47;;;16.56
63689;BMP280;54895;40.928;14.480;2023-04-03T14:44:49;99917.50;;;16.50
63689;BMP280;54895;40.928;14.480;2023-04-03T14:47:20;99941.56;;;16.29
63689;BMP280;54895;40.928;14.480;2023-04-03T14:49:48;99919.91;;;16.46
63689;BMP280;54895;40.928;14.480;2023-04-03T14:54:48;99942.84;;;16.77
63689;BMP280;54895;40.928;14.480;2023-04-03T14:57:16;99935.63;;;16.40
63689;BMP280;54895;40.928;14.480;2023-04-03T14:59:44;99925.88;;;16.35
63689;BMP280;54895;40.928;14.480;2023-04-03T15:02:38;99911.78;;;16.25
63689;BMP280;54895;40.928;14.480;2023-04-03T15:05:07;99932.72;;;15.98
63689;BMP280;54895;40.928;14.480;2023-04-03T15:07:42;99931.75;;;16.13
63689;BMP280;54895;40.928;14.480;2023-04-03T15:10:16;99950.22;;;16.18
63689;BMP280;54895;40.928;14.480;2023-04-03T15:12:44;99909.88;;;15.78
63689;BMP280;54895;40.928;14.480;2023-04-03T15:15:11;99888.13;;;15.55
63689;BMP280;54895;40.928;14.480;2023-04-03T15:17:37;99933.56;;;15.72
63689;BMP280;54895;40.928;14.480;2023-04-03T15:20:25;99919.47;;;15.62
63689;BMP280;54895;40.928;14.480;2023-04-03T15:22:52;99897.75;;;15.58
63689;BMP280;54895;40.928;14.480;2023-04-03T15:25:18;99909.59;;;15.74
63689;BMP280;54895;40.928;14.480;2023-04-03T15:27:45;99952.50;;;15.74
63689;BMP280;54895;40.928;14.480;2023-04-03T15:30:14;99945.03;;;15.63
63689;BMP280;54895;40.928;14.480;2023-04-03T15:32:41;99957.03;;;15.81
63689;BMP280;54895;40.928;14.480;2023-04-03T15:35:08;99955.84;;;15.46
63689;BMP280;54895;40.928;14.480;2023-04-03T15:37:34;99951.66;;;15.43
63689;BMP280;54895;40.928;14.480;2023-04-03T15:40:01;99943.53;;;15.24
63689;BMP280;54895;40.928;14.480;2023-04-03T15:42:27;99958.88;;;15.14
63689;BMP280;54895;40.928;14.480;2023-04-03T15:44:53;99963.81;;;15.18
63689;BMP280;54895;40.928;14.480;2023-04-03T15:47:19;99979.94;;;15.27
63689;BMP280;54895;40.928;14.480;2023-04-03T15:49:46;99977.63;;;15.14
63689;BMP280;54895;40.928;14.480;2023-04-03T15:52:12;99950.41;;;15.08
63689;BMP280;54895;40.928;14.480;2023-04-03T15:54:38;99965.44;;;14.94
63689;BMP280;54895;40.928;14.480;2023-04-03T15:57:04;99984.94;;;15.14
63689;BMP280;54895;40.928;14.480;2023-04-03T15:59:31;99963.16;;;14.64
63689;BMP280;54895;40.928;14.480;2023-04-03T16:01:58;99993.09;;;14.70
63689;BMP280;54895;40.928;14.480;2023-04-03T16:04:25;99977.81;;;14.63
63689;BMP280;54895;40.928;14.480;2023-04-03T16:06:51;99978.25;;;14.69